sensor_id;sensor_type;location;lat;lon;timestamp;pressure;altitude;pressure_sealevel;temperature;humidity
20889;BME280;10604;51.976;7.594;2023-11-19T00:00:07;100080.63;;;24.96;41.71
20889;BME280;10604;51.976;7.594;2023-11-19T00:02:39;100073.97;;;25.08;41.61
20889;BME280;10604;51.976;7.594;2023-11-19T00:05:05;100081.72;;;25.90;40.61
20889;BME280;10604;51.976;7.594;2023-11-19T00:07:33;100075.97;;;25.42;40.80
20889;BME280;10604;51.976;7.594;2023-11-19T00:09:59;100076.41;;;26.06;40.19
20889;BME280;10604;51.976;7.594;2023-11-19T00:12:32;100071.53;;;25.84;40.63
20889;BME280;10604;51.976;7.594;2023-11-19T00:14:57;100066.72;;;25.26;41.04
20889;BME280;10604;51.976;7.594;2023-11-19T00:17:22;100061.72;;;24.78;42.15
20889;BME280;10604;51.976;7.594;2023-11-19T00:19:47;100066.97;;;25.59;41.72
20889;BME280;10604;51.976;7.594;2023-11-19T00:22:14;100073.75;;;25.02;42.43
20889;BME280;10604;51.976;7.594;2023-11-19T00:24:39;100070.34;;;26.12;40.78
20889;BME280;10604;51.976;7.594;2023-11-19T00:27:04;100082.25;;;26.28;40.03
20889;BME280;10604;51.976;7.594;2023-11-19T00:29:30;100065.84;;;25.00;42.11
20889;BME280;10604;51.976;7.594;2023-11-19T00:31:55;100063.03;;;25.53;41.58
20889;BME280;10604;51.976;7.594;2023-11-19T00:34:20;100064.53;;;25.48;41.47
20889;BME280;10604;51.976;7.594;2023-11-19T00:36:47;100043.97;;;25.29;41.91
20889;BME280;10604;51.976;7.594;2023-11-19T00:39:13;100049.53;;;26.55;39.88
20889;BME280;10604;51.976;7.594;2023-11-19T00:41:40;100040.69;;;26.37;40.76
20889;BME280;10604;51.976;7.594;2023-11-19T00:44:05;100030.31;;;25.82;40.70
20889;BME280;10604;51.976;7.594;2023-11-19T00:46:30;100018.38;;;26.01;41.38
20889;BME280;10604;51.976;7.594;2023-11-19T00:48:57;100020.91;;;26.44;39.71
20889;BME280;10604;51.976;7.594;2023-11-19T00:51:24;100007.19;;;25.88;41.52
20889;BME280;10604;51.976;7.594;2023-11-19T00:53:49;100015.09;;;26.89;39.78
20889;BME280;10604;51.976;7.594;2023-11-19T00:56:15;100006.91;;;26.49;40.34
20889;BME280;10604;51.976;7.594;2023-11-19T00:58:42;100007.59;;;26.59;39.95
20889;BME280;10604;51.976;7.594;2023-11-19T01:01:07;100013.09;;;25.83;41.00
20889;BME280;10604;51.976;7.594;2023-11-19T01:03:32;99997.97;;;26.06;41.01
20889;BME280;10604;51.976;7.594;2023-11-19T01:05:58;100001.81;;;25.36;41.29
20889;BME280;10604;51.976;7.594;2023-11-19T01:08:24;99997.13;;;25.72;41.80
20889;BME280;10604;51.976;7.594;2023-11-19T01:10:50;100001.28;;;25.32;42.34
20889;BME280;10604;51.976;7.594;2023-11-19T01:13:15;100003.78;;;25.08;43.34
20889;BME280;10604;51.976;7.594;2023-11-19T01:15:40;99997.78;;;26.50;40.84
20889;BME280;10604;51.976;7.594;2023-11-19T01:18:06;100010.66;;;25.72;41.82
20889;BME280;10604;51.976;7.594;2023-11-19T01:20:34;99999.13;;;26.46;41.08
20889;BME280;10604;51.976;7.594;2023-11-19T01:22:59;100001.69;;;26.05;41.23
20889;BME280;10604;51.976;7.594;2023-11-19T01:25:25;99990.94;;;26.22;41.04
20889;BME280;10604;51.976;7.594;2023-11-19T01:27:50;100004.72;;;26.52;40.78
20889;BME280;10604;51.976;7.594;2023-11-19T01:30:15;99997.28;;;26.04;41.25
20889;BME280;10604;51.976;7.594;2023-11-19T01:32:40;99993.72;;;26.46;40.56
20889;BME280;10604;51.976;7.594;2023-11-19T01:35:06;99986.34;;;25.20;43.27
20889;BME280;10604;51.976;7.594;2023-11-19T01:37:33;99981.38;;;26.01;42.35
20889;BME280;10604;51.976;7.594;2023-11-19T01:39:59;99982.88;;;25.96;41.71
20889;BME280;10604;51.976;7.594;2023-11-19T01:42:25;99985.28;;;26.81;40.46
20889;BME280;10604;51.976;7.594;2023-11-19T01:44:57;99963.34;;;26.10;41.82
20889;BME280;10604;51.976;7.594;2023-11-19T01:47:23;99964.66;;;26.64;40.59
20889;BME280;10604;51.976;7.594;2023-11-19T01:49:49;99963.13;;;26.78;40.12
20889;BME280;10604;51.976;7.594;2023-11-19T01:52:15;99963.97;;;27.11;39.87
20889;BME280;10604;51.976;7.594;2023-11-19T01:54:40;99964.66;;;26.64;40.30
20889;BME280;10604;51.976;7.594;2023-11-19T01:57:05;99959.25;;;27.05;39.96
20889;BME280;10604;51.976;7.594;2023-11-19T01:59:32;99943.16;;;25.20;43.13
20889;BME280;10604;51.976;7.594;2023-11-19T02:01:57;99938.78;;;26.62;41.49
20889;BME280;10604;51.976;7.594;2023-11-19T02:04:23;99934.56;;;27.00;40.14
20889;BME280;10604;51.976;7.594;2023-11-19T02:06:48;99925.34;;;26.20;42.49
20889;BME280;10604;51.976;7.594;2023-11-19T02:09:14;99920.22;;;27.46;39.83
20889;BME280;10604;51.976;7.594;2023-11-19T02:11:40;99932.31;;;26.79;40.32
20889;BME280;10604;51.976;7.594;2023-11-19T02:14:06;99936.53;;;26.33;40.99
20889;BME280;10604;51.976;7.594;2023-11-19T02:16:31;99933.34;;;27.74;39.12
20889;BME280;10604;51.976;7.594;2023-11-19T02:18:57;99935.03;;;27.75;39.08
20889;BME280;10604;51.976;7.594;2023-11-19T02:21:22;99920.16;;;28.01;38.75
20889;BME280;10604;51.976;7.594;2023-11-19T02:23:47;99930.16;;;27.07;40.54
20889;BME280;10604;51.976;7.594;2023-11-19T02:26:14;99927.09;;;27.02;41.15
20889;BME280;10604;51.976;7.594;2023-11-19T02:28:42;99919.81;;;26.94;40.37
20889;BME280;10604;51.976;7.594;2023-11-19T02:31:08;99917.19;;;28.42;38.57
20889;BME280;10604;51.976;7.594;2023-11-19T02:33:39;99924.91;;;27.69;39.72
20889;BME280;10604;51.976;7.594;2023-11-19T02:36:05;99917.56;;;27.22;40.38
20889;BME280;10604;51.976;7.594;2023-11-19T02:38:32;99931.25;;;27.92;39.18
20889;BME280;10604;51.976;7.594;2023-11-19T02:40:57;99913.84;;;27.15;40.15
20889;BME280;10604;51.976;7.594;2023-11-19T02:43:23;99903.94;;;27.62;39.75
20889;BME280;10604;51.976;7.594;2023-11-19T02:45:48;99917.13;;;26.54;42.11
20889;BME280;10604;51.976;7.594;2023-11-19T02:48:13;99916.94;;;27.12;40.78
20889;BME280;10604;51.976;7.594;2023-11-19T02:50:40;99895.97;;;27.06;40.62
20889;BME280;10604;51.976;7.594;2023-11-19T02:53:06;99887.56;;;27.79;40.42
20889;BME280;10604;51.976;7.594;2023-11-19T02:55:31;99887.44;;;28.34;38.45
20889;BME280;10604;51.976;7.594;2023-11-19T02:58:02;99885.78;;;27.94;39.18
20889;BME280;10604;51.976;7.594;2023-11-19T03:00:33;99880.09;;;27.81;40.00
20889;BME280;10604;51.976;7.594;2023-11-19T03:03:02;99866.28;;;28.44;38.43
20889;BME280;10604;51.976;7.594;2023-11-19T03:05:45;99876.44;;;28.27;38.78
20889;BME280;10604;51.976;7.594;2023-11-19T03:08:11;99865.78;;;27.95;38.97
20889;BME280;10604;51.976;7.594;2023-11-19T03:10:37;99863.50;;;27.84;40.06
20889;BME280;10604;51.976;7.594;2023-11-19T03:13:02;99861.34;;;27.24;40.86
20889;BME280;10604;51.976;7.594;2023-11-19T03:15:28;99862.22;;;27.94;39.20
20889;BME280;10604;51.976;7.594;2023-11-19T03:17:53;99866.16;;;27.92;39.36
20889;BME280;10604;51.976;7.594;2023-11-19T03:20:19;99872.19;;;27.71;40.16
20889;BME280;10604;51.976;7.594;2023-11-19T03:22:45;99875.78;;;28.25;38.73
20889;BME280;10604;51.976;7.594;2023-11-19T03:25:11;99864.63;;;27.50;40.60
20889;BME280;10604;51.976;7.594;2023-11-19T03:27:39;99872.56;;;28.44;38.29
20889;BME280;10604;51.976;7.594;2023-11-19T03:30:06;99865.69;;;28.11;39.36
20889;BME280;10604;51.976;7.594;2023-11-19T03:32:32;99868.50;;;27.95;39.76
20889;BME280;10604;51.976;7.594;2023-11-19T03:34:58;99873.09;;;27.63;40.06
20889;BME280;10604;51.976;7.594;2023-11-19T03:37:24;99873.66;;;26.47;41.52
20889;BME280;10604;51.976;7.594;2023-11-19T03:39:50;99871.75;;;27.59;40.70
20889;BME280;10604;51.976;7.594;2023-11-19T03:42:16;99865.09;;;27.23;40.95
20889;BME280;10604;51.976;7.594;2023-11-19T03:44:41;99884.28;;;27.60;40.57
20889;BME280;10604;51.976;7.594;2023-11-19T03:47:06;99885.03;;;27.30;40.50
20889;BME280;10604;51.976;7.594;2023-11-19T03:49:31;99886.97;;;27.13;41.04
20889;BME280;10604;51.976;7.594;2023-11-19T03:51:57;99888.88;;;27.91;39.88
20889;BME280;10604;51.976;7.594;2023-11-19T03:54:22;99892.38;;;27.69;40.43
20889;BME280;10604;51.976;7.594;2023-11-19T03:56:48;99911.19;;;26.34;42.29
20889;BME280;10604;51.976;7.594;2023-11-19T03:59:14;99902.69;;;28.04;39.54
20889;BME280;10604;51.976;7.594;2023-11-19T04:01:40;99889.00;;;27.66;39.26
20889;BME280;10604;51.976;7.594;2023-11-19T04:04:05;99888.50;;;28.48;38.32
20889;BME280;10604;51.976;7.594;2023-11-19T04:06:31;99892.72;;;28.27;38.37
20889;BME280;10604;51.976;7.594;2023-11-19T04:08:56;99890.06;;;28.19;38.31
20889;BME280;10604;51.976;7.594;2023-11-19T04:11:21;99885.81;;;27.00;40.35
20889;BME280;10604;51.976;7.594;2023-11-19T04:13:47;99883.78;;;26.85;39.94
20889;BME280;10604;51.976;7.594;2023-11-19T04:16:12;99886.69;;;27.47;39.54
20889;BME280;10604;51.976;7.594;2023-11-19T04:18:37;99883.81;;;28.41;37.75
20889;BME280;10604;51.976;7.594;2023-11-19T04:21:05;99883.56;;;27.97;37.85
20889;BME280;10604;51.976;7.594;2023-11-19T04:23:31;99888.72;;;28.84;36.38
20889;BME280;10604;51.976;7.594;2023-11-19T04:25:56;99895.13;;;27.60;38.26
20889;BME280;10604;51.976;7.594;2023-11-19T04:28:21;99894.50;;;28.12;37.41
20889;BME280;10604;51.976;7.594;2023-11-19T04:30:47;99903.81;;;27.79;37.94
20889;BME280;10604;51.976;7.594;2023-11-19T04:33:12;99900.22;;;27.47;38.16
20889;BME280;10604;51.976;7.594;2023-11-19T04:35:37;99895.44;;;27.96;37.83
20889;BME280;10604;51.976;7.594;2023-11-19T04:38:03;99913.72;;;26.51;39.74
20889;BME280;10604;51.976;7.594;2023-11-19T04:40:28;99895.84;;;27.38;38.24
20889;BME280;10604;51.976;7.594;2023-11-19T04:42:53;99888.03;;;27.43;38.72
20889;BME280;10604;51.976;7.594;2023-11-19T04:45:18;99878.97;;;28.29;37.77
20889;BME280;10604;51.976;7.594;2023-11-19T04:47:45;99884.28;;;28.14;37.18
20889;BME280;10604;51.976;7.594;2023-11-19T04:50:10;99880.78;;;27.83;38.02
20889;BME280;10604;51.976;7.594;2023-11-19T04:52:38;99882.97;;;27.79;37.89
20889;BME280;10604;51.976;7.594;2023-11-19T04:55:05;99885.56;;;27.25;38.39
20889;BME280;10604;51.976;7.594;2023-11-19T04:57:31;99894.22;;;27.21;38.53
20889;BME280;10604;51.976;7.594;2023-11-19T04:59:57;99886.94;;;27.99;37.34
20889;BME280;10604;51.976;7.594;2023-11-19T05:02:23;99896.41;;;27.73;37.53
20889;BME280;10604;51.976;7.594;2023-11-19T05:04:48;99908.50;;;27.07;38.43
20889;BME280;10604;51.976;7.594;2023-11-19T05:07:14;99905.63;;;28.25;37.08
20889;BME280;10604;51.976;7.594;2023-11-19T05:09:39;99899.84;;;27.11;38.92
20889;BME280;10604;51.976;7.594;2023-11-19T05:12:05;99903.28;;;27.52;37.86
20889;BME280;10604;51.976;7.594;2023-11-19T05:14:30;99910.50;;;26.88;38.40
20889;BME280;10604;51.976;7.594;2023-11-19T05:16:55;99907.47;;;26.51;38.94
20889;BME280;10604;51.976;7.594;2023-11-19T05:19:21;99922.72;;;26.93;38.41
20889;BME280;10604;51.976;7.594;2023-11-19T05:21:46;99900.69;;;27.12;38.18
20889;BME280;10604;51.976;7.594;2023-11-19T05:24:12;99923.69;;;26.51;38.27
20889;BME280;10604;51.976;7.594;2023-11-19T05:26:37;99922.47;;;28.13;37.15
20889;BME280;10604;51.976;7.594;2023-11-19T05:29:03;99927.44;;;26.42;38.60
20889;BME280;10604;51.976;7.594;2023-11-19T05:31:28;99913.53;;;27.10;38.16
20889;BME280;10604;51.976;7.594;2023-11-19T05:33:53;99913.56;;;26.53;38.46
20889;BME280;10604;51.976;7.594;2023-11-19T05:36:18;99897.97;;;27.12;37.66
20889;BME280;10604;51.976;7.594;2023-11-19T05:38:44;99911.22;;;27.93;36.56
20889;BME280;10604;51.976;7.594;2023-11-19T05:41:09;99921.34;;;26.64;38.68
20889;BME280;10604;51.976;7.594;2023-11-19T05:43:35;99918.47;;;26.74;38.04
20889;BME280;10604;51.976;7.594;2023-11-19T05:46:00;99914.66;;;27.79;37.04
20889;BME280;10604;51.976;7.594;2023-11-19T05:48:26;99918.84;;;25.96;39.94
20889;BME280;10604;51.976;7.594;2023-11-19T05:50:52;99914.25;;;26.55;38.23
20889;BME280;10604;51.976;7.594;2023-11-19T05:53:18;99905.63;;;26.76;38.12
20889;BME280;10604;51.976;7.594;2023-11-19T05:55:44;99922.69;;;26.28;38.45
20889;BME280;10604;51.976;7.594;2023-11-19T05:58:19;99913.19;;;26.88;38.10
20889;BME280;10604;51.976;7.594;2023-11-19T06:00:46;99915.06;;;26.72;37.65
20889;BME280;10604;51.976;7.594;2023-11-19T06:03:11;99907.66;;;27.61;36.57
20889;BME280;10604;51.976;7.594;2023-11-19T06:05:37;99914.56;;;27.01;37.78
20889;BME280;10604;51.976;7.594;2023-11-19T06:08:02;99913.09;;;27.53;36.72
20889;BME280;10604;51.976;7.594;2023-11-19T06:10:28;99921.63;;;26.21;38.66
20889;BME280;10604;51.976;7.594;2023-11-19T06:12:59;99914.84;;;27.30;36.82
20889;BME280;10604;51.976;7.594;2023-11-19T06:15:30;99919.56;;;26.06;38.56
20889;BME280;10604;51.976;7.594;2023-11-19T06:17:55;99918.84;;;27.58;36.73
20889;BME280;10604;51.976;7.594;2023-11-19T06:20:20;99930.31;;;26.97;37.43
20889;BME280;10604;51.976;7.594;2023-11-19T06:22:46;99932.19;;;26.56;37.03
20889;BME280;10604;51.976;7.594;2023-11-19T06:25:11;99932.50;;;26.53;37.89
20889;BME280;10604;51.976;7.594;2023-11-19T06:27:37;99924.63;;;27.55;37.03
20889;BME280;10604;51.976;7.594;2023-11-19T06:30:02;99927.25;;;27.72;36.63
20889;BME280;10604;51.976;7.594;2023-11-19T06:32:28;99934.53;;;26.83;37.19
20889;BME280;10604;51.976;7.594;2023-11-19T06:34:54;99933.75;;;27.93;36.56
20889;BME280;10604;51.976;7.594;2023-11-19T06:37:19;99940.81;;;28.02;36.09
20889;BME280;10604;51.976;7.594;2023-11-19T06:39:44;99952.19;;;26.13;37.91
20889;BME280;10604;51.976;7.594;2023-11-19T06:42:09;99944.00;;;26.79;36.96
20889;BME280;10604;51.976;7.594;2023-11-19T06:44:35;99955.75;;;27.67;36.39
20889;BME280;10604;51.976;7.594;2023-11-19T06:47:00;99962.28;;;27.02;36.58
20889;BME280;10604;51.976;7.594;2023-11-19T06:49:25;99958.81;;;28.34;35.24
20889;BME280;10604;51.976;7.594;2023-11-19T06:51:50;99966.28;;;27.54;36.42
20889;BME280;10604;51.976;7.594;2023-11-19T06:54:15;99957.03;;;27.80;35.77
20889;BME280;10604;51.976;7.594;2023-11-19T06:56:41;99954.66;;;26.89;36.39
20889;BME280;10604;51.976;7.594;2023-11-19T06:59:06;99958.56;;;27.03;36.42
20889;BME280;10604;51.976;7.594;2023-11-19T07:01:35;99970.78;;;26.16;37.03
20889;BME280;10604;51.976;7.594;2023-11-19T07:04:01;99966.91;;;27.64;35.80
20889;BME280;10604;51.976;7.594;2023-11-19T07:06:32;99981.41;;;27.08;36.80
20889;BME280;10604;51.976;7.594;2023-11-19T07:08:58;99967.22;;;27.06;36.49
20889;BME280;10604;51.976;7.594;2023-11-19T07:11:23;99974.13;;;27.09;36.51
20889;BME280;10604;51.976;7.594;2023-11-19T07:13:48;99979.38;;;26.62;36.29
20889;BME280;10604;51.976;7.594;2023-11-19T07:16:14;99980.56;;;27.16;36.38
20889;BME280;10604;51.976;7.594;2023-11-19T07:18:39;99968.59;;;28.43;34.84
20889;BME280;10604;51.976;7.594;2023-11-19T07:21:04;99970.13;;;28.15;35.23
20889;BME280;10604;51.976;7.594;2023-11-19T07:23:30;99970.09;;;26.97;36.21
20889;BME280;10604;51.976;7.594;2023-11-19T07:25:56;99964.66;;;27.84;35.30
20889;BME280;10604;51.976;7.594;2023-11-19T07:28:21;99975.72;;;27.75;35.81
20889;BME280;10604;51.976;7.594;2023-11-19T07:30:46;99988.66;;;27.56;35.60
20889;BME280;10604;51.976;7.594;2023-11-19T07:33:12;99989.28;;;27.66;35.13
20889;BME280;10604;51.976;7.594;2023-11-19T07:35:38;99989.94;;;28.47;33.94
20889;BME280;10604;51.976;7.594;2023-11-19T07:38:04;99993.25;;;27.95;34.88
20889;BME280;10604;51.976;7.594;2023-11-19T07:40:29;100006.63;;;27.33;35.84
20889;BME280;10604;51.976;7.594;2023-11-19T07:42:54;99980.22;;;26.62;36.94
20889;BME280;10604;51.976;7.594;2023-11-19T07:45:19;99999.19;;;27.03;36.96
20889;BME280;10604;51.976;7.594;2023-11-19T07:47:45;100009.00;;;27.28;35.78
20889;BME280;10604;51.976;7.594;2023-11-19T07:50:10;99997.31;;;27.99;34.69
20889;BME280;10604;51.976;7.594;2023-11-19T07:52:35;100004.78;;;28.59;34.02
20889;BME280;10604;51.976;7.594;2023-11-19T07:55:00;100009.53;;;27.87;34.77
20889;BME280;10604;51.976;7.594;2023-11-19T07:57:26;100022.88;;;26.84;35.92
20889;BME280;10604;51.976;7.594;2023-11-19T07:59:55;100022.50;;;27.36;36.03
20889;BME280;10604;51.976;7.594;2023-11-19T08:02:20;100021.78;;;27.83;35.22
20889;BME280;10604;51.976;7.594;2023-11-19T08:04:46;100024.91;;;27.31;35.13
20889;BME280;10604;51.976;7.594;2023-11-19T08:07:15;100039.13;;;27.49;35.52
20889;BME280;10604;51.976;7.594;2023-11-19T08:09:40;100029.31;;;27.24;35.80
20889;BME280;10604;51.976;7.594;2023-11-19T08:12:05;100028.91;;;26.54;36.14
20889;BME280;10604;51.976;7.594;2023-11-19T08:14:31;100022.25;;;25.90;37.38
20889;BME280;10604;51.976;7.594;2023-11-19T08:16:58;100027.78;;;27.62;36.14
20889;BME280;10604;51.976;7.594;2023-11-19T08:19:23;100041.84;;;27.41;35.87
20889;BME280;10604;51.976;7.594;2023-11-19T08:21:48;100028.63;;;27.30;35.52
20889;BME280;10604;51.976;7.594;2023-11-19T08:24:13;100030.16;;;28.04;35.36
20889;BME280;10604;51.976;7.594;2023-11-19T08:26:39;100037.16;;;28.37;34.23
20889;BME280;10604;51.976;7.594;2023-11-19T08:29:04;100030.09;;;27.73;35.60
20889;BME280;10604;51.976;7.594;2023-11-19T08:31:29;100037.06;;;25.78;37.51
20889;BME280;10604;51.976;7.594;2023-11-19T08:33:54;100038.03;;;25.25;38.53
20889;BME280;10604;51.976;7.594;2023-11-19T08:36:20;100038.47;;;27.07;36.12
20889;BME280;10604;51.976;7.594;2023-11-19T08:38:45;100042.84;;;27.32;35.51
20889;BME280;10604;51.976;7.594;2023-11-19T08:41:11;100041.09;;;26.66;37.16
20889;BME280;10604;51.976;7.594;2023-11-19T08:43:36;100037.03;;;26.54;36.50
20889;BME280;10604;51.976;7.594;2023-11-19T08:46:01;100052.78;;;26.67;36.68
20889;BME280;10604;51.976;7.594;2023-11-19T08:48:27;100042.53;;;27.35;35.73
20889;BME280;10604;51.976;7.594;2023-11-19T08:50:52;100049.28;;;27.39;36.02
20889;BME280;10604;51.976;7.594;2023-11-19T08:53:17;100047.22;;;26.76;36.02
20889;BME280;10604;51.976;7.594;2023-11-19T08:55:42;100043.16;;;27.78;35.23
20889;BME280;10604;51.976;7.594;2023-11-19T08:58:08;100048.88;;;27.83;35.04
20889;BME280;10604;51.976;7.594;2023-11-19T09:00:33;100058.06;;;27.74;34.96
20889;BME280;10604;51.976;7.594;2023-11-19T09:02:58;100057.41;;;27.63;35.41
20889;BME280;10604;51.976;7.594;2023-11-19T09:05:24;100052.63;;;27.82;35.34
20889;BME280;10604;51.976;7.594;2023-11-19T09:07:49;100053.00;;;27.71;35.20
20889;BME280;10604;51.976;7.594;2023-11-19T09:10:15;100049.16;;;28.43;33.76
20889;BME280;10604;51.976;7.594;2023-11-19T09:12:40;100049.94;;;27.65;35.20
20889;BME280;10604;51.976;7.594;2023-11-19T09:15:05;100054.91;;;28.01;35.05
20889;BME280;10604;51.976;7.594;2023-11-19T09:17:31;100045.50;;;28.28;34.61
20889;BME280;10604;51.976;7.594;2023-11-19T09:19:56;100062.84;;;27.63;35.21
20889;BME280;10604;51.976;7.594;2023-11-19T09:22:22;100067.16;;;26.75;36.66
20889;BME280;10604;51.976;7.594;2023-11-19T09:24:47;100065.63;;;26.23;36.92
20889;BME280;10604;51.976;7.594;2023-11-19T09:27:13;100065.47;;;26.74;35.91
20889;BME280;10604;51.976;7.594;2023-11-19T09:29:38;100058.97;;;26.51;36.78
20889;BME280;10604;51.976;7.594;2023-11-19T09:32:03;100068.59;;;26.96;35.39
20889;BME280;10604;51.976;7.594;2023-11-19T09:34:29;100070.69;;;26.18;36.79
20889;BME280;10604;51.976;7.594;2023-11-19T09:36:55;100057.06;;;28.22;34.69
20889;BME280;10604;51.976;7.594;2023-11-19T09:39:20;100061.44;;;27.76;34.07
20889;BME280;10604;51.976;7.594;2023-11-19T09:41:46;100067.88;;;27.83;34.77
20889;BME280;10604;51.976;7.594;2023-11-19T09:44:12;100058.56;;;28.32;34.27
20889;BME280;10604;51.976;7.594;2023-11-19T09:46:38;100056.66;;;28.64;33.59
20889;BME280;10604;51.976;7.594;2023-11-19T09:49:04;100054.00;;;27.78;34.86
20889;BME280;10604;51.976;7.594;2023-11-19T09:51:32;100053.84;;;28.88;33.46
20889;BME280;10604;51.976;7.594;2023-11-19T09:53:57;100059.25;;;28.88;33.28
20889;BME280;10604;51.976;7.594;2023-11-19T09:56:23;100041.84;;;26.93;34.85
20889;BME280;10604;51.976;7.594;2023-11-19T09:58:48;100054.31;;;27.83;34.67
20889;BME280;10604;51.976;7.594;2023-11-19T10:01:13;100056.22;;;27.34;34.68
20889;BME280;10604;51.976;7.594;2023-11-19T10:03:39;100047.00;;;28.38;33.57
20889;BME280;10604;51.976;7.594;2023-11-19T10:06:06;100037.94;;;29.75;32.55
20889;BME280;10604;51.976;7.594;2023-11-19T10:08:32;100036.72;;;28.26;33.82
20889;BME280;10604;51.976;7.594;2023-11-19T10:10:57;100043.88;;;27.31;34.33
20889;BME280;10604;51.976;7.594;2023-11-19T10:13:27;100046.06;;;27.60;34.53
20889;BME280;10604;51.976;7.594;2023-11-19T10:15:52;100042.09;;;27.87;34.81
20889;BME280;10604;51.976;7.594;2023-11-19T10:18:18;100036.75;;;28.49;33.50
20889;BME280;10604;51.976;7.594;2023-11-19T10:20:43;100035.91;;;27.21;34.57
20889;BME280;10604;51.976;7.594;2023-11-19T10:23:09;100037.78;;;27.13;35.50
20889;BME280;10604;51.976;7.594;2023-11-19T10:25:36;100037.81;;;28.39;34.37
20889;BME280;10604;51.976;7.594;2023-11-19T10:28:01;100036.13;;;28.92;33.56
20889;BME280;10604;51.976;7.594;2023-11-19T10:30:28;100029.47;;;28.18;34.46
20889;BME280;10604;51.976;7.594;2023-11-19T10:33:10;100033.78;;;28.89;32.93
20889;BME280;10604;51.976;7.594;2023-11-19T10:35:56;100028.41;;;28.27;33.67
20889;BME280;10604;51.976;7.594;2023-11-19T10:38:21;100024.47;;;27.83;34.60
20889;BME280;10604;51.976;7.594;2023-11-19T10:40:47;100019.59;;;28.25;33.89
20889;BME280;10604;51.976;7.594;2023-11-19T10:43:13;100036.31;;;27.90;34.23
20889;BME280;10604;51.976;7.594;2023-11-19T10:45:38;100019.50;;;26.91;35.42
20889;BME280;10604;51.976;7.594;2023-11-19T10:48:04;100018.16;;;27.98;34.47
20889;BME280;10604;51.976;7.594;2023-11-19T10:50:36;100023.34;;;28.08;34.05
20889;BME280;10604;51.976;7.594;2023-11-19T10:53:02;100015.56;;;28.75;33.23
20889;BME280;10604;51.976;7.594;2023-11-19T10:55:28;100020.16;;;27.49;34.68
20889;BME280;10604;51.976;7.594;2023-11-19T10:57:58;100026.75;;;27.22;34.98
20889;BME280;10604;51.976;7.594;2023-11-19T11:00:23;100023.50;;;28.99;33.21
20889;BME280;10604;51.976;7.594;2023-11-19T11:02:50;100013.84;;;28.74;32.97
20889;BME280;10604;51.976;7.594;2023-11-19T11:05:17;100018.41;;;27.73;34.63
20889;BME280;10604;51.976;7.594;2023-11-19T11:07:44;100010.44;;;28.26;33.97
20889;BME280;10604;51.976;7.594;2023-11-19T11:10:09;100018.31;;;28.67;33.54
20889;BME280;10604;51.976;7.594;2023-11-19T11:12:36;100029.50;;;29.55;32.19
20889;BME280;10604;51.976;7.594;2023-11-19T11:15:02;100025.25;;;29.15;33.30
20889;BME280;10604;51.976;7.594;2023-11-19T11:17:29;100027.03;;;28.23;33.82
20889;BME280;10604;51.976;7.594;2023-11-19T11:19:57;100029.47;;;28.02;34.00
20889;BME280;10604;51.976;7.594;2023-11-19T11:22:22;100022.94;;;28.89;33.27
20889;BME280;10604;51.976;7.594;2023-11-19T11:37:33;100017.25;;;28.76;33.15
20889;BME280;10604;51.976;7.594;2023-11-19T11:40:00;100016.44;;;27.42;34.38
20889;BME280;10604;51.976;7.594;2023-11-19T11:42:30;100007.63;;;27.40;34.51
20889;BME280;10604;51.976;7.594;2023-11-19T11:47:25;100009.25;;;28.52;33.83
20889;BME280;10604;51.976;7.594;2023-11-19T11:49:50;100020.94;;;29.20;32.92
20889;BME280;10604;51.976;7.594;2023-11-19T11:52:17;100020.41;;;28.57;33.38
20889;BME280;10604;51.976;7.594;2023-11-19T11:54:42;100012.94;;;27.89;34.43
20889;BME280;10604;51.976;7.594;2023-11-19T11:57:11;100002.25;;;28.57;34.11
20889;BME280;10604;51.976;7.594;2023-11-19T11:59:46;100002.13;;;29.19;33.37
20889;BME280;10604;51.976;7.594;2023-11-19T12:02:13;100000.34;;;29.11;33.25
20889;BME280;10604;51.976;7.594;2023-11-19T12:04:41;100000.22;;;29.57;32.51
20889;BME280;10604;51.976;7.594;2023-11-19T12:07:20;100001.16;;;26.52;35.87
20889;BME280;10604;51.976;7.594;2023-11-19T12:09:47;100005.94;;;27.23;35.40
20889;BME280;10604;51.976;7.594;2023-11-19T12:20:09;99987.69;;;28.81;33.16
20889;BME280;10604;51.976;7.594;2023-11-19T12:22:37;99992.38;;;28.87;32.71
20889;BME280;10604;51.976;7.594;2023-11-19T12:25:04;99995.38;;;28.92;33.23
20889;BME280;10604;51.976;7.594;2023-11-19T12:27:30;99984.22;;;27.63;34.34
20889;BME280;10604;51.976;7.594;2023-11-19T12:29:55;99982.41;;;29.40;32.53
20889;BME280;10604;51.976;7.594;2023-11-19T12:32:22;99971.66;;;28.40;33.78
20889;BME280;10604;51.976;7.594;2023-11-19T12:34:47;99963.16;;;28.43;33.34
20889;BME280;10604;51.976;7.594;2023-11-19T12:37:12;99967.84;;;28.72;33.35
20889;BME280;10604;51.976;7.594;2023-11-19T12:39:38;99968.09;;;28.09;34.59
20889;BME280;10604;51.976;7.594;2023-11-19T12:42:03;99981.41;;;27.88;33.91
20889;BME280;10604;51.976;7.594;2023-11-19T12:44:29;99973.41;;;29.83;32.19
20889;BME280;10604;51.976;7.594;2023-11-19T12:49:26;99970.28;;;28.44;33.23
20889;BME280;10604;51.976;7.594;2023-11-19T12:51:51;99967.88;;;28.95;32.95
20889;BME280;10604;51.976;7.594;2023-11-19T12:54:17;99976.25;;;29.08;32.69
20889;BME280;10604;51.976;7.594;2023-11-19T12:56:52;99961.44;;;27.81;33.71
20889;BME280;10604;51.976;7.594;2023-11-19T12:59:18;99961.88;;;27.61;34.52
20889;BME280;10604;51.976;7.594;2023-11-19T13:01:53;99954.88;;;28.37;33.55
20889;BME280;10604;51.976;7.594;2023-11-19T13:04:19;99956.22;;;28.64;33.54
20889;BME280;10604;51.976;7.594;2023-11-19T13:06:47;99956.28;;;29.53;32.15
20889;BME280;10604;51.976;7.594;2023-11-19T13:09:25;99949.75;;;28.65;33.02
20889;BME280;10604;51.976;7.594;2023-11-19T13:11:51;99950.19;;;27.45;33.29
20889;BME280;10604;51.976;7.594;2023-11-19T13:14:17;99941.00;;;28.01;33.27